Time;durP1;ratioP1;P1;durP2;ratioP2;P2;SDS_P1;SDS_P2;PMS_P1;PMS_P2;Temp;Humidity;BMP_temperature;BMP_pressure;BME280_temperature;BME280_humidity;BME280_pressure;Samples;Min_cycle;Max_cycle;Signal;HPM_P1;HPM_P2
2022/06/03 00:02:35;;;;;;;5.47;5.00;;;;;;;;;;4972755;28;20413;-56
2022/06/03 00:05:03;;;;;;;5.70;5.10;;;;;;;;;;4976346;28;20424;-57
2022/06/03 00:07:32;;;;;;;5.50;4.90;;;;;;;;;;4976824;28;20400;-57
2022/06/03 00:10:25;;;;;;;4.73;4.33;;;;;;;;;;4977198;28;20421;-57
2022/06/03 00:13:11;;;;;;;4.73;4.20;;;;;;;;;;4960263;28;20508;-57
2022/06/03 00:15:49;;;;;;;5.67;5.00;;;;;;;;;;4926323;28;20472;-58
2022/06/03 00:18:34;;;;;;;4.90;4.50;;;;;;;;;;4975491;28;20405;-58
2022/06/03 00:21:05;;;;;;;5.40;4.90;;;;;;;;;;4975540;28;20773;-57
2022/06/03 00:23:34;;;;;;;7.50;5.07;;;;;;;;;;4976499;28;20401;-57
2022/06/03 00:26:13;;;;;;;5.97;4.70;;;;;;;;;;4975988;28;20401;-57
2022/06/03 00:28:45;;;;;;;8.37;4.97;;;;;;;;;;4975777;28;20401;-58
2022/06/03 00:31:16;;;;;;;4.90;4.40;;;;;;;;;;4976537;28;20401;-58
2022/06/03 00:34:01;;;;;;;6.53;4.70;;;;;;;;;;4975329;28;20405;-58
2022/06/03 00:36:45;;;;;;;5.63;4.67;;;;;;;;;;4975757;28;21005;-58
2022/06/03 00:39:23;;;;;;;6.10;4.20;;;;;;;;;;4975675;28;20421;-57
2022/06/03 00:42:02;;;;;;;4.67;4.27;;;;;;;;;;4975274;28;20425;-58
2022/06/03 00:44:31;;;;;;;7.83;5.00;;;;;;;;;;4975878;28;20405;-58
2022/06/03 00:47:24;;;;;;;5.53;5.03;;;;;;;;;;4976127;28;20408;-58
2022/06/03 00:49:53;;;;;;;5.30;4.80;;;;;;;;;;4972872;28;20445;-57
2022/06/03 00:52:22;;;;;;;7.10;5.10;;;;;;;;;;4976247;28;20409;-57
2022/06/03 00:55:00;;;;;;;5.17;4.67;;;;;;;;;;4976496;28;20457;-58
2022/06/03 00:57:32;;;;;;;6.17;5.57;;;;;;;;;;4976033;28;20409;-58
2022/06/03 00:59:58;;;;;;;6.03;4.70;;;;;;;;;;4976972;28;20417;-57
2022/06/03 01:02:24;;;;;;;4.93;4.53;;;;;;;;;;4975736;28;20415;-58
2022/06/03 01:04:53;;;;;;;4.33;4.00;;;;;;;;;;4978380;28;20438;-57
2022/06/03 01:07:19;;;;;;;5.30;4.60;;;;;;;;;;4980099;28;20496;-57
2022/06/03 01:10:04;;;;;;;8.83;4.17;;;;;;;;;;4980798;28;20459;-57
2022/06/03 01:12:33;;;;;;;4.50;4.10;;;;;;;;;;4980628;28;20401;-57
2022/06/03 01:15:09;;;;;;;4.37;3.97;;;;;;;;;;4980850;28;20519;-53
2022/06/03 01:17:38;;;;;;;4.33;3.53;;;;;;;;;;4975489;28;20413;-54
2022/06/03 01:20:18;;;;;;;5.63;4.27;;;;;;;;;;4975997;28;20491;-53
2022/06/03 01:23:06;;;;;;;5.23;4.20;;;;;;;;;;4975550;28;20405;-53
2022/06/03 01:25:51;;;;;;;5.10;4.70;;;;;;;;;;4975678;28;20642;-54
2022/06/03 01:28:36;;;;;;;8.33;4.50;;;;;;;;;;4975378;28;20841;-53
2022/06/03 01:31:22;;;;;;;4.93;4.43;;;;;;;;;;4975672;28;20412;-53
2022/06/03 01:33:48;;;;;;;9.27;5.10;;;;;;;;;;4975370;28;20436;-54
2022/06/03 01:36:23;;;;;;;5.97;5.47;;;;;;;;;;4975266;28;20460;-54
2022/06/03 01:39:07;;;;;;;5.10;4.63;;;;;;;;;;4974898;28;20487;-55
2022/06/03 01:41:52;;;;;;;5.20;4.70;;;;;;;;;;4975304;28;20847;-53
2022/06/03 01:44:34;;;;;;;6.83;4.60;;;;;;;;;;4975307;28;20563;-55
2022/06/03 01:47:15;;;;;;;5.17;4.63;;;;;;;;;;4975157;28;20397;-55
2022/06/03 01:49:44;;;;;;;6.27;4.70;;;;;;;;;;4974953;28;20428;-54
2022/06/03 01:52:29;;;;;;;5.83;5.33;;;;;;;;;;4975123;28;20405;-53
2022/06/03 01:54:58;;;;;;;5.73;5.23;;;;;;;;;;4974984;28;20465;-55
2022/06/03 01:57:43;;;;;;;5.60;5.10;;;;;;;;;;4975032;28;20397;-53
2022/06/03 02:00:12;;;;;;;6.50;5.70;;;;;;;;;;4974803;28;20448;-56
2022/06/03 02:02:46;;;;;;;8.90;6.57;;;;;;;;;;4975026;28;20413;-53
2022/06/03 02:05:32;;;;;;;8.57;6.70;;;;;;;;;;4974907;28;20804;-53
2022/06/03 02:08:04;;;;;;;8.80;7.93;;;;;;;;;;4974811;28;20405;-53
2022/06/03 02:10:49;;;;;;;10.70;7.97;;;;;;;;;;4974872;28;20428;-54
2022/06/03 02:13:15;;;;;;;11.97;7.27;;;;;;;;;;4974642;28;20409;-53
2022/06/03 02:16:00;;;;;;;9.87;7.93;;;;;;;;;;4974558;28;20460;-53
2022/06/03 02:18:44;;;;;;;11.57;7.87;;;;;;;;;;4974568;28;20397;-53
2022/06/03 02:21:22;;;;;;;9.20;7.57;;;;;;;;;;4974848;28;20944;-54
2022/06/03 02:24:07;;;;;;;11.37;7.87;;;;;;;;;;4974614;28;20833;-53
2022/06/03 02:26:51;;;;;;;9.33;7.50;;;;;;;;;;4974230;28;20401;-53
2022/06/03 02:32:17;;;;;;;11.23;8.20;;;;;;;;;;4974407;28;20383;-55
2022/06/03 02:34:49;;;;;;;10.10;8.73;;;;;;;;;;4974218;28;20456;-53
2022/06/03 02:37:45;;;;;;;7.93;7.13;;;;;;;;;;4974158;28;20428;-53
2022/06/03 02:40:26;;;;;;;8.00;7.10;;;;;;;;;;4973991;28;20417;-53
2022/06/03 02:42:52;;;;;;;10.10;8.07;;;;;;;;;;4974092;28;20910;-53
2022/06/03 02:45:36;;;;;;;8.77;7.27;;;;;;;;;;4974037;28;20413;-53
2022/06/03 02:48:21;;;;;;;7.17;6.47;;;;;;;;;;4973790;28;21027;-55
2022/06/03 02:50:56;;;;;;;12.27;7.03;;;;;;;;;;4973863;28;20440;-53
2022/06/03 02:53:34;;;;;;;8.77;7.10;;;;;;;;;;4974001;28;20436;-53
2022/06/03 02:56:10;;;;;;;7.77;6.40;;;;;;;;;;4973657;28;20547;-53
2022/06/03 02:58:39;;;;;;;8.90;6.60;;;;;;;;;;4973683;28;20412;-54
2022/06/03 03:01:08;;;;;;;10.43;7.23;;;;;;;;;;4973829;28;20443;-53
2022/06/03 03:03:53;;;;;;;10.03;7.00;;;;;;;;;;4974218;28;20408;-53
2022/06/03 03:06:28;;;;;;;8.77;6.77;;;;;;;;;;4973499;28;20405;-53
2022/06/03 03:08:54;;;;;;;10.63;6.47;;;;;;;;;;4973583;28;20448;-55
2022/06/03 03:11:29;;;;;;;7.47;6.43;;;;;;;;;;4973701;28;20408;-54
2022/06/03 03:14:14;;;;;;;7.20;6.13;;;;;;;;;;4973398;28;20400;-52
2022/06/03 03:16:42;;;;;;;7.27;6.57;;;;;;;;;;4973416;28;20397;-53
2022/06/03 03:19:27;;;;;;;10.93;7.17;;;;;;;;;;4973497;28;20443;-53
2022/06/03 03:22:03;;;;;;;7.73;6.33;;;;;;;;;;4973452;28;20415;-53
2022/06/03 03:24:48;;;;;;;6.63;6.03;;;;;;;;;;4973499;28;20429;-54
2022/06/03 03:27:20;;;;;;;6.57;5.90;;;;;;;;;;4972868;28;20401;-54
2022/06/03 03:30:05;;;;;;;7.07;5.90;;;;;;;;;;4973241;28;21004;-53
2022/06/03 03:32:44;;;;;;;8.17;7.37;;;;;;;;;;4973294;28;20439;-54
2022/06/03 03:35:16;;;;;;;7.40;6.13;;;;;;;;;;4973278;28;20477;-55
2022/06/03 03:37:48;;;;;;;7.33;6.53;;;;;;;;;;4973125;28;20456;-55
2022/06/03 03:40:33;;;;;;;6.90;6.00;;;;;;;;;;4973104;28;20421;-57
2022/06/03 03:43:08;;;;;;;8.73;6.27;;;;;;;;;;4973112;28;20459;-53
2022/06/03 03:45:37;;;;;;;7.03;6.40;;;;;;;;;;4973346;28;20479;-53
2022/06/03 03:48:21;;;;;;;7.00;6.30;;;;;;;;;;4972813;28;20436;-55
2022/06/03 03:51:04;;;;;;;9.53;6.70;;;;;;;;;;4973029;28;20424;-54
2022/06/03 03:53:42;;;;;;;6.50;5.90;;;;;;;;;;4972980;28;20459;-54
2022/06/03 03:56:17;;;;;;;7.10;6.50;;;;;;;;;;4972894;28;20460;-55
2022/06/03 03:59:06;;;;;;;11.20;7.10;;;;;;;;;;4972845;28;20455;-53
2022/06/03 04:01:50;;;;;;;7.90;6.70;;;;;;;;;;4973018;28;20413;-53
2022/06/03 04:04:35;;;;;;;6.60;5.90;;;;;;;;;;4973000;28;20464;-54
2022/06/03 04:07:21;;;;;;;6.73;6.13;;;;;;;;;;4972750;28;20413;-54
2022/06/03 04:09:56;;;;;;;7.63;6.90;;;;;;;;;;4972869;28;20421;-53
2022/06/03 04:12:28;;;;;;;8.50;6.40;;;;;;;;;;4972850;28;20492;-53
2022/06/03 04:15:03;;;;;;;6.80;5.90;;;;;;;;;;4972922;28;20467;-53
2022/06/03 04:17:44;;;;;;;7.87;6.23;;;;;;;;;;4972624;28;20400;-54
2022/06/03 04:20:29;;;;;;;7.33;6.30;;;;;;;;;;4972736;28;20425;-53
2022/06/03 04:23:06;;;;;;;7.23;5.90;;;;;;;;;;4972785;28;20385;-53
2022/06/03 04:25:38;;;;;;;7.57;6.83;;;;;;;;;;4972841;28;20400;-53
2022/06/03 04:28:22;;;;;;;8.80;6.67;;;;;;;;;;4972462;28;20830;-54
2022/06/03 04:31:00;;;;;;;9.10;7.70;;;;;;;;;;4972602;28;20568;-53
2022/06/03 04:33:50;;;;;;;11.03;7.43;;;;;;;;;;4972676;28;20885;-55
2022/06/03 04:36:35;;;;;;;8.50;7.00;;;;;;;;;;4972666;28;20404;-55
2022/06/03 04:39:19;;;;;;;10.73;7.63;;;;;;;;;;4972963;28;20417;-54
2022/06/03 04:42:04;;;;;;;7.57;6.87;;;;;;;;;;4976304;28;20421;-53
2022/06/03 04:44:48;;;;;;;12.43;7.10;;;;;;;;;;4976370;28;20408;-53
2022/06/03 04:47:33;;;;;;;9.20;7.40;;;;;;;;;;4976139;28;20960;-54
2022/06/03 04:50:11;;;;;;;8.77;6.97;;;;;;;;;;4976193;28;20425;-55
2022/06/03 04:53:03;;;;;;;7.80;7.00;;;;;;;;;;4976350;28;20517;-53
2022/06/03 04:55:48;;;;;;;7.77;6.97;;;;;;;;;;4939606;28;20552;-52
2022/06/03 04:58:27;;;;;;;7.73;6.93;;;;;;;;;;4975841;28;20912;-53
2022/06/03 05:01:12;;;;;;;8.00;7.20;;;;;;;;;;4976120;28;20467;-53
2022/06/03 05:03:57;;;;;;;7.07;6.37;;;;;;;;;;4976031;28;20409;-54
2022/06/03 05:06:25;;;;;;;9.80;5.87;;;;;;;;;;4975665;28;20408;-54
2022/06/03 05:09:10;;;;;;;6.47;5.73;;;;;;;;;;4975791;28;20393;-53
2022/06/03 05:11:36;;;;;;;7.33;6.63;;;;;;;;;;4976187;28;20397;-54
2022/06/03 05:14:02;;;;;;;7.37;6.57;;;;;;;;;;4975763;28;20901;-53
2022/06/03 05:16:28;;;;;;;8.80;7.17;;;;;;;;;;4975605;28;20407;-53
2022/06/03 05:18:54;;;;;;;10.93;6.80;;;;;;;;;;4975491;28;20516;-53
2022/06/03 05:21:23;;;;;;;7.40;6.27;;;;;;;;;;4975790;28;20489;-53
2022/06/03 05:24:05;;;;;;;7.30;6.60;;;;;;;;;;4975623;28;20409;-56
2022/06/03 05:26:41;;;;;;;8.07;6.40;;;;;;;;;;4975400;28;20400;-55
2022/06/03 05:29:25;;;;;;;7.67;5.97;;;;;;;;;;4975395;28;20476;-55
2022/06/03 05:32:20;;;;;;;6.60;6.00;;;;;;;;;;4975485;28;20405;-54
2022/06/03 05:35:01;;;;;;;7.80;6.03;;;;;;;;;;4975323;28;20507;-54
2022/06/03 05:37:38;;;;;;;6.37;5.67;;;;;;;;;;4975216;28;20409;-53
2022/06/03 05:40:23;;;;;;;6.87;6.17;;;;;;;;;;4975427;28;20424;-54
2022/06/03 05:42:52;;;;;;;6.37;5.73;;;;;;;;;;4975237;28;20475;-54
2022/06/03 05:45:18;;;;;;;6.73;6.00;;;;;;;;;;4975319;28;20405;-53
2022/06/03 05:47:50;;;;;;;5.60;5.20;;;;;;;;;;4975031;28;20404;-54
2022/06/03 05:50:31;;;;;;;6.40;5.80;;;;;;;;;;4974563;28;20912;-54
2022/06/03 05:53:03;;;;;;;6.23;5.57;;;;;;;;;;4975156;28;20417;-53
2022/06/03 05:55:47;;;;;;;6.60;6.00;;;;;;;;;;4974949;28;20503;-53
2022/06/03 05:58:16;;;;;;;6.80;5.70;;;;;;;;;;4974864;28;20400;-53
2022/06/03 06:00:49;;;;;;;6.87;5.00;;;;;;;;;;4974749;28;20425;-53
2022/06/03 06:03:24;;;;;;;5.37;4.90;;;;;;;;;;4975176;28;20369;-54
2022/06/03 06:05:55;;;;;;;6.77;5.37;;;;;;;;;;4974948;28;20438;-53
2022/06/03 06:08:26;;;;;;;5.50;5.00;;;;;;;;;;4974630;28;20407;-54
2022/06/03 06:11:07;;;;;;;5.27;4.77;;;;;;;;;;4974692;28;20513;-54
2022/06/03 06:13:38;;;;;;;5.13;4.63;;;;;;;;;;4974818;28;20405;-55
2022/06/03 06:16:09;;;;;;;9.27;4.17;;;;;;;;;;4974684;28;20555;-54
2022/06/03 06:18:55;;;;;;;4.50;4.10;;;;;;;;;;4974306;28;20904;-55
2022/06/03 06:21:30;;;;;;;4.83;4.10;;;;;;;;;;4974551;28;20397;-55
2022/06/03 06:24:34;;;;;;;5.10;4.60;;;;;;;;;;4974510;28;20817;-55
2022/06/03 06:27:08;;;;;;;9.70;3.90;;;;;;;;;;4876960;29;20930;-53
2022/06/03 06:29:53;;;;;;;4.10;3.80;;;;;;;;;;4876938;29;20427;-55
2022/06/03 06:32:28;;;;;;;4.40;4.07;;;;;;;;;;4940635;28;20502;-55
2022/06/03 06:35:07;;;;;;;5.23;4.10;;;;;;;;;;4974262;28;20452;-53
2022/06/03 06:37:33;;;;;;;3.70;3.40;;;;;;;;;;4974108;28;20401;-54
2022/06/03 06:39:59;;;;;;;3.50;3.20;;;;;;;;;;4974071;28;20508;-54
2022/06/03 06:42:46;;;;;;;6.27;3.10;;;;;;;;;;4974052;28;20463;-55
2022/06/03 06:45:18;;;;;;;3.70;3.40;;;;;;;;;;4974486;28;20817;-54
2022/06/03 06:47:59;;;;;;;5.90;3.20;;;;;;;;;;4973875;28;20775;-54
2022/06/03 06:50:40;;;;;;;3.17;2.97;;;;;;;;;;4973947;28;20440;-53
2022/06/03 06:53:11;;;;;;;4.03;3.73;;;;;;;;;;4973980;28;20928;-54
2022/06/03 06:55:53;;;;;;;4.93;3.63;;;;;;;;;;4973990;28;20795;-54
2022/06/03 06:58:32;;;;;;;5.10;2.97;;;;;;;;;;4973666;28;20452;-54
2022/06/03 07:00:59;;;;;;;3.57;3.27;;;;;;;;;;4973736;28;20918;-55
2022/06/03 07:03:46;;;;;;;3.20;3.00;;;;;;;;;;4973263;28;20392;-55
2022/06/03 07:06:14;;;;;;;3.30;3.10;;;;;;;;;;4957574;28;20399;-53
2022/06/03 07:08:49;;;;;;;3.47;3.20;;;;;;;;;;4973813;28;21140;-56
2022/06/03 07:11:31;;;;;;;3.27;3.03;;;;;;;;;;4973635;28;20402;-53
2022/06/03 07:14:03;;;;;;;3.43;3.00;;;;;;;;;;4973664;28;20375;-55
2022/06/03 07:19:50;;;;;;;2.83;2.63;;;;;;;;;;4973718;28;21004;-54
2022/06/03 07:22:18;;;;;;;3.47;3.20;;;;;;;;;;4973532;28;20812;-56
2022/06/03 07:24:50;;;;;;;3.43;3.13;;;;;;;;;;4973442;28;20402;-55
2022/06/03 07:27:23;;;;;;;2.80;2.60;;;;;;;;;;4973268;28;20406;-55
2022/06/03 07:30:08;;;;;;;3.47;2.73;;;;;;;;;;4973320;28;20918;-53
2022/06/03 07:32:40;;;;;;;2.90;2.70;;;;;;;;;;4973399;28;20486;-54
2022/06/03 07:35:11;;;;;;;2.80;2.60;;;;;;;;;;4973340;28;20464;-53
2022/06/03 07:37:51;;;;;;;3.20;2.90;;;;;;;;;;4973159;28;20911;-53
2022/06/03 07:40:25;;;;;;;4.73;2.53;;;;;;;;;;4980696;28;20936;-54
2022/06/03 07:43:10;;;;;;;2.40;2.30;;;;;;;;;;4972308;28;20458;-55
2022/06/03 07:45:39;;;;;;;4.50;4.10;;;;;;;;;;4973187;28;20379;-54
2022/06/03 07:48:07;;;;;;;4.90;3.40;;;;;;;;;;4972902;28;20405;-54
2022/06/03 07:50:36;;;;;;;3.73;3.43;;;;;;;;;;4973004;28;20428;-54
2022/06/03 07:53:13;;;;;;;3.23;3.03;;;;;;;;;;4973010;28;20487;-54
2022/06/03 07:55:40;;;;;;;3.33;3.13;;;;;;;;;;4973162;28;20464;-55
2022/06/03 07:58:08;;;;;;;3.70;3.40;;;;;;;;;;4972867;28;20417;-55
2022/06/03 08:00:35;;;;;;;3.70;3.40;;;;;;;;;;4972787;28;20937;-54
2022/06/03 08:03:05;;;;;;;5.13;3.30;;;;;;;;;;4972863;28;20407;-54
2022/06/03 08:05:32;;;;;;;3.17;2.90;;;;;;;;;;4971673;28;20413;-54
2022/06/03 08:10:57;;;;;;;4.00;3.30;;;;;;;;;;4972446;28;20972;-54
2022/06/03 08:13:44;;;;;;;3.20;2.93;;;;;;;;;;4973480;28;20412;-54
2022/06/03 08:16:19;;;;;;;3.00;2.80;;;;;;;;;;4975717;28;20464;-54
2022/06/03 08:18:45;;;;;;;4.40;3.13;;;;;;;;;;4976178;28;20418;-54
2022/06/03 08:21:14;;;;;;;4.93;2.80;;;;;;;;;;4976528;28;20417;-54
2022/06/03 08:23:40;;;;;;;2.53;2.30;;;;;;;;;;4976769;28;20405;-55
2022/06/03 08:26:11;;;;;;;2.43;2.33;;;;;;;;;;4976462;28;20421;-54
2022/06/03 08:28:39;;;;;;;2.40;2.27;;;;;;;;;;4976257;28;20416;-53
2022/06/03 08:31:06;;;;;;;2.50;2.33;;;;;;;;;;4976346;28;20429;-54
2022/06/03 08:33:41;;;;;;;3.30;2.20;;;;;;;;;;4976392;28;20420;-54
2022/06/03 08:36:07;;;;;;;4.93;2.40;;;;;;;;;;4976799;28;20554;-55
2022/06/03 08:38:39;;;;;;;3.00;2.27;;;;;;;;;;4975816;28;20425;-53
2022/06/03 08:41:23;;;;;;;2.37;2.27;;;;;;;;;;4975780;28;20503;-53
2022/06/03 08:44:08;;;;;;;1.80;1.70;;;;;;;;;;4976478;28;20409;-54
2022/06/03 08:46:49;;;;;;;2.00;1.90;;;;;;;;;;4974692;28;20408;-55
2022/06/03 08:49:19;;;;;;;3.83;1.90;;;;;;;;;;4959397;28;20883;-53
2022/06/03 08:51:48;;;;;;;2.30;2.03;;;;;;;;;;4956841;29;20412;-54
2022/06/03 08:54:36;;;;;;;6.40;1.87;;;;;;;;;;4956790;29;21073;-53
2022/06/03 08:57:09;;;;;;;2.20;2.10;;;;;;;;;;4965423;28;20416;-55
2022/06/03 08:59:40;;;;;;;2.00;1.77;;;;;;;;;;4971896;28;21031;-54
2022/06/03 09:02:11;;;;;;;1.90;1.70;;;;;;;;;;4975831;28;20452;-54
2022/06/03 09:04:48;;;;;;;2.10;1.90;;;;;;;;;;4967105;28;20912;-54
2022/06/03 09:07:35;;;;;;;1.80;1.70;;;;;;;;;;4975724;28;20422;-53
2022/06/03 09:10:07;;;;;;;3.17;2.27;;;;;;;;;;4975785;28;20499;-54
2022/06/03 09:12:33;;;;;;;2.00;1.90;;;;;;;;;;4975440;28;20424;-54
2022/06/03 09:15:05;;;;;;;2.20;2.10;;;;;;;;;;4975240;28;20479;-54
2022/06/03 09:17:42;;;;;;;1.70;1.60;;;;;;;;;;4941738;28;20182;-53
2022/06/03 09:20:11;;;;;;;1.90;1.80;;;;;;;;;;4975024;28;20526;-53
2022/06/03 09:22:37;;;;;;;2.83;1.80;;;;;;;;;;4975014;28;20921;-53
2022/06/03 09:25:06;;;;;;;2.03;1.90;;;;;;;;;;4974711;28;20409;-53
2022/06/03 09:27:32;;;;;;;5.33;1.80;;;;;;;;;;4974472;28;20467;-53
2022/06/03 09:30:02;;;;;;;2.43;2.23;;;;;;;;;;4975260;28;20512;-53
2022/06/03 09:32:28;;;;;;;2.20;2.00;;;;;;;;;;4975278;28;20475;-53
2022/06/03 09:35:01;;;;;;;4.67;1.87;;;;;;;;;;4974311;28;20499;-53
2022/06/03 09:37:27;;;;;;;2.10;1.90;;;;;;;;;;4974165;28;20448;-53
2022/06/03 09:39:54;;;;;;;1.83;1.73;;;;;;;;;;4974509;28;20503;-53
2022/06/03 09:42:22;;;;;;;4.83;4.43;;;;;;;;;;4973373;28;20610;-53
2022/06/03 09:44:49;;;;;;;2.23;2.13;;;;;;;;;;4975183;28;20409;-53
2022/06/03 09:47:16;;;;;;;2.90;2.70;;;;;;;;;;4974518;28;20812;-54
2022/06/03 09:49:45;;;;;;;4.43;3.00;;;;;;;;;;4957608;28;20778;-53
2022/06/03 09:52:13;;;;;;;3.10;1.63;;;;;;;;;;4974399;28;20508;-55
2022/06/03 09:54:40;;;;;;;5.67;5.10;;;;;;;;;;4972999;28;20547;-53
2022/06/03 09:57:06;;;;;;;2.70;2.50;;;;;;;;;;4974517;28;20425;-53
2022/06/03 09:59:35;;;;;;;2.30;2.20;;;;;;;;;;4974538;28;20519;-54
2022/06/03 10:02:01;;;;;;;6.87;6.27;;;;;;;;;;4974758;28;20420;-53
2022/06/03 10:04:27;;;;;;;5.60;5.03;;;;;;;;;;4974240;28;20455;-53
2022/06/03 10:06:54;;;;;;;1.80;1.70;;;;;;;;;;4974839;28;20409;-53
2022/06/03 10:17:38;;;;;;;2.23;2.03;;;;;;;;;;4955303;29;20400;-55
2022/06/03 10:20:06;;;;;;;1.90;1.80;;;;;;;;;;4964888;28;20437;-53
2022/06/03 10:22:32;;;;;;;2.40;1.87;;;;;;;;;;4974589;28;20437;-53
2022/06/03 10:24:59;;;;;;;3.67;2.67;;;;;;;;;;4974353;28;20455;-54
2022/06/03 10:27:26;;;;;;;3.03;2.83;;;;;;;;;;4974475;28;20826;-53
2022/06/03 10:29:52;;;;;;;2.47;2.27;;;;;;;;;;4974148;28;20444;-53
2022/06/03 10:32:21;;;;;;;4.80;2.40;;;;;;;;;;4973634;28;20421;-54
2022/06/03 10:34:47;;;;;;;6.27;5.33;;;;;;;;;;4974058;28;20460;-53
2022/06/03 10:37:15;;;;;;;2.80;2.53;;;;;;;;;;4972921;28;20428;-53
2022/06/03 10:39:43;;;;;;;2.17;1.90;;;;;;;;;;4973511;28;20937;-54
2022/06/03 10:42:13;;;;;;;2.43;2.27;;;;;;;;;;4972456;28;20425;-53
2022/06/03 10:44:42;;;;;;;2.10;1.93;;;;;;;;;;4973865;28;20512;-53
2022/06/03 10:47:19;;;;;;;1.87;1.67;;;;;;;;;;4973393;28;20425;-53
2022/06/03 10:49:59;;;;;;;2.70;2.07;;;;;;;;;;4977156;28;20449;-55
2022/06/03 11:01:13;;;;;;;2.47;1.87;;;;;;;;;;4954746;28;20428;-53
2022/06/03 11:03:41;;;;;;;2.23;1.70;;;;;;;;;;4973791;28;20886;-55
2022/06/03 11:06:09;;;;;;;2.17;2.00;;;;;;;;;;4973570;28;20425;-56
2022/06/03 11:08:54;;;;;;;2.20;2.00;;;;;;;;;;4973372;28;20983;-52
2022/06/03 11:11:38;;;;;;;17.87;2.03;;;;;;;;;;4973804;28;20397;-53
2022/06/03 11:14:24;;;;;;;2.30;1.80;;;;;;;;;;4973450;28;20999;-52
2022/06/03 11:16:53;;;;;;;1.37;1.27;;;;;;;;;;4973528;28;20508;-52
2022/06/03 11:19:21;;;;;;;1.90;1.80;;;;;;;;;;4973001;28;20444;-52
2022/06/03 11:21:47;;;;;;;5.40;1.50;;;;;;;;;;4973102;28;20420;-53
2022/06/03 11:24:13;;;;;;;1.70;1.60;;;;;;;;;;4973546;28;20428;-53
2022/06/03 11:26:43;;;;;;;1.60;1.50;;;;;;;;;;4973204;28;20417;-52
2022/06/03 11:29:12;;;;;;;3.93;1.50;;;;;;;;;;4973127;28;20417;-54
2022/06/03 11:31:40;;;;;;;1.30;1.20;;;;;;;;;;4973196;28;20420;-53
2022/06/03 11:34:08;;;;;;;1.87;1.40;;;;;;;;;;4972799;28;20421;-53
2022/06/03 11:36:40;;;;;;;1.50;1.40;;;;;;;;;;4972507;28;20511;-53
2022/06/03 11:39:13;;;;;;;1.40;1.30;;;;;;;;;;4972133;28;20436;-55
2022/06/03 11:41:48;;;;;;;1.40;1.30;;;;;;;;;;4972091;28;20507;-53
2022/06/03 11:44:28;;;;;;;1.43;1.33;;;;;;;;;;4971754;28;20419;-54
2022/06/03 11:47:10;;;;;;;2.73;1.60;;;;;;;;;;4965214;28;20413;-55
2022/06/03 11:49:36;;;;;;;1.90;1.80;;;;;;;;;;4972334;28;21136;-53
2022/06/03 11:52:03;;;;;;;1.90;1.67;;;;;;;;;;4971081;28;20504;-53
2022/06/03 11:54:29;;;;;;;2.13;1.90;;;;;;;;;;4971558;28;20456;-54
2022/06/03 11:56:55;;;;;;;1.90;1.80;;;;;;;;;;4970938;28;20767;-52
2022/06/03 11:59:26;;;;;;;2.23;1.83;;;;;;;;;;4972235;28;20417;-53
2022/06/03 12:01:52;;;;;;;3.33;1.57;;;;;;;;;;4972884;28;20421;-54
2022/06/03 12:04:36;;;;;;;1.60;1.50;;;;;;;;;;4973073;28;20890;-53
2022/06/03 12:07:11;;;;;;;1.50;1.40;;;;;;;;;;4957661;28;20917;-52
2022/06/03 12:09:45;;;;;;;1.80;1.70;;;;;;;;;;4972552;28;20428;-53
2022/06/03 12:15:26;;;;;;;1.80;1.70;;;;;;;;;;4958013;28;20995;-53
2022/06/03 12:17:52;;;;;;;1.70;1.60;;;;;;;;;;4971254;28;20805;-55
2022/06/03 12:20:31;;;;;;;1.80;1.60;;;;;;;;;;4972062;28;20432;-54
2022/06/03 12:22:58;;;;;;;1.77;1.40;;;;;;;;;;4972212;28;20413;-55
2022/06/03 12:25:33;;;;;;;1.50;1.40;;;;;;;;;;4972841;28;20500;-54
2022/06/03 12:28:02;;;;;;;1.83;1.30;;;;;;;;;;4971770;28;20929;-55
2022/06/03 12:30:49;;;;;;;1.60;1.50;;;;;;;;;;4972612;28;20913;-53
2022/06/03 12:33:24;;;;;;;2.80;1.70;;;;;;;;;;4956471;28;20832;-53
2022/06/03 12:35:55;;;;;;;1.67;1.57;;;;;;;;;;4972673;28;20458;-54
2022/06/03 12:38:21;;;;;;;2.30;1.40;;;;;;;;;;4972209;28;20421;-52
2022/06/03 12:40:48;;;;;;;1.80;1.70;;;;;;;;;;4972523;28;20428;-54
2022/06/03 12:43:30;;;;;;;1.50;1.40;;;;;;;;;;4972351;28;21023;-54
2022/06/03 12:45:58;;;;;;;2.93;1.70;;;;;;;;;;4972602;28;20401;-55
2022/06/03 12:48:43;;;;;;;1.70;1.60;;;;;;;;;;4972173;28;20419;-53
2022/06/03 12:51:18;;;;;;;1.60;1.50;;;;;;;;;;4972508;28;20408;-53
2022/06/03 12:53:45;;;;;;;2.60;1.90;;;;;;;;;;4971816;28;20776;-53
2022/06/03 12:56:20;;;;;;;1.80;1.70;;;;;;;;;;4972433;28;20456;-56
2022/06/03 12:58:46;;;;;;;1.60;1.50;;;;;;;;;;4971996;28;20420;-54
2022/06/03 13:01:12;;;;;;;1.93;1.80;;;;;;;;;;4974806;28;20848;-55
2022/06/03 13:03:40;;;;;;;1.70;1.60;;;;;;;;;;4975774;28;20823;-55
2022/06/03 13:06:08;;;;;;;1.67;1.57;;;;;;;;;;4976033;28;20404;-55
2022/06/03 13:09:34;;;;;;;2.13;1.73;;;;;;;;;;4975359;28;20801;-55
2022/06/03 13:11:20;;;;;;;3.43;1.47;;;;;;;;;;4975603;28;20937;-53
2022/06/03 13:13:51;;;;;;;1.50;1.40;;;;;;;;;;4975812;28;20545;-54
2022/06/03 13:16:20;;;;;;;1.57;1.47;;;;;;;;;;4975628;28;20815;-54
2022/06/03 13:18:51;;;;;;;1.80;1.63;;;;;;;;;;4975230;28;20429;-53
2022/06/03 13:21:17;;;;;;;2.07;1.83;;;;;;;;;;4975662;28;20517;-52
2022/06/03 13:23:44;;;;;;;2.57;2.37;;;;;;;;;;4956545;29;20441;-53
2022/06/03 13:26:23;;;;;;;5.30;2.07;;;;;;;;;;4956409;29;20410;-53
2022/06/03 13:28:50;;;;;;;1.43;1.33;;;;;;;;;;4956078;29;20426;-53
2022/06/03 13:31:19;;;;;;;2.00;1.80;;;;;;;;;;4956203;29;20405;-55
2022/06/03 13:34:00;;;;;;;2.07;1.50;;;;;;;;;;4975012;28;20905;-53
2022/06/03 13:36:32;;;;;;;1.97;1.87;;;;;;;;;;4974465;28;20817;-56
2022/06/03 13:38:58;;;;;;;2.30;1.90;;;;;;;;;;4974780;28;20425;-52
2022/06/03 13:44:33;;;;;;;1.77;1.60;;;;;;;;;;4956449;29;20429;-53
2022/06/03 13:46:59;;;;;;;1.43;1.33;;;;;;;;;;4961098;28;20765;-54
2022/06/03 13:49:27;;;;;;;1.60;1.50;;;;;;;;;;4974893;28;20425;-53
2022/06/03 13:51:55;;;;;;;1.90;1.60;;;;;;;;;;4974874;28;20415;-53
2022/06/03 13:54:25;;;;;;;2.10;2.00;;;;;;;;;;4975120;28;20445;-53
2022/06/03 13:56:54;;;;;;;1.70;1.60;;;;;;;;;;4974907;28;20413;-53
2022/06/03 13:59:21;;;;;;;1.50;1.40;;;;;;;;;;4974542;28;20437;-54
2022/06/03 14:01:50;;;;;;;1.77;1.40;;;;;;;;;;4974740;28;20431;-55
2022/06/03 14:04:16;;;;;;;3.23;1.40;;;;;;;;;;4974926;28;20405;-52
2022/06/03 14:06:45;;;;;;;1.90;1.80;;;;;;;;;;4974629;28;20416;-52
2022/06/03 14:09:41;;;;;;;1.67;1.57;;;;;;;;;;4973877;28;20437;-55
2022/06/03 14:12:07;;;;;;;1.67;1.57;;;;;;;;;;4953693;28;20429;-53
2022/06/03 14:14:51;;;;;;;1.60;1.50;;;;;;;;;;4974541;28;20460;-52
2022/06/03 14:17:29;;;;;;;1.70;1.60;;;;;;;;;;4974379;28;20432;-52
2022/06/03 14:19:58;;;;;;;3.53;1.60;;;;;;;;;;4974662;28;20420;-52
2022/06/03 14:22:34;;;;;;;2.50;1.43;;;;;;;;;;4982005;28;20416;-53
2022/06/03 14:25:03;;;;;;;1.80;1.70;;;;;;;;;;4974604;28;20412;-53
2022/06/03 14:27:34;;;;;;;2.37;1.83;;;;;;;;;;4974145;28;20421;-54
2022/06/03 14:30:16;;;;;;;1.70;1.60;;;;;;;;;;4974847;28;20464;-53
2022/06/03 14:32:46;;;;;;;2.03;1.80;;;;;;;;;;4974412;28;20416;-55
2022/06/03 14:35:18;;;;;;;3.83;1.70;;;;;;;;;;4974496;28;20467;-56
2022/06/03 14:37:48;;;;;;;2.20;2.00;;;;;;;;;;4972666;28;20433;-56
2022/06/03 14:40:16;;;;;;;2.27;1.97;;;;;;;;;;4975101;28;20417;-55
2022/06/03 14:42:42;;;;;;;2.87;2.57;;;;;;;;;;4973757;28;20852;-53
2022/06/03 14:45:10;;;;;;;1.80;1.70;;;;;;;;;;4973503;28;20917;-55
2022/06/03 14:47:39;;;;;;;3.73;1.77;;;;;;;;;;4973745;28;20455;-55
2022/06/03 14:50:11;;;;;;;2.10;2.00;;;;;;;;;;4973715;28;20532;-52
2022/06/03 14:52:43;;;;;;;1.77;1.67;;;;;;;;;;4974099;28;20405;-52
2022/06/03 14:55:09;;;;;;;3.87;1.80;;;;;;;;;;4973425;28;20964;-52
2022/06/03 14:57:39;;;;;;;1.80;1.70;;;;;;;;;;4973857;28;20844;-53
2022/06/03 15:00:23;;;;;;;2.30;2.10;;;;;;;;;;4973618;28;20460;-52
2022/06/03 15:02:54;;;;;;;5.90;2.27;;;;;;;;;;4973077;28;20397;-53
2022/06/03 15:05:29;;;;;;;4.20;2.00;;;;;;;;;;4972490;28;20417;-56
2022/06/03 15:07:58;;;;;;;2.00;1.90;;;;;;;;;;4974485;28;20972;-58
2022/06/03 15:10:25;;;;;;;1.87;1.77;;;;;;;;;;4973522;28;20429;-55
2022/06/03 15:12:56;;;;;;;3.77;2.00;;;;;;;;;;4973452;28;20408;-56
2022/06/03 15:15:27;;;;;;;1.90;1.80;;;;;;;;;;4973320;28;20457;-55
2022/06/03 15:17:54;;;;;;;3.20;2.07;;;;;;;;;;4973293;28;20413;-56
2022/06/03 15:20:21;;;;;;;2.10;2.00;;;;;;;;;;4973092;28;20444;-54
2022/06/03 15:22:53;;;;;;;2.30;1.87;;;;;;;;;;4973213;28;20536;-54
2022/06/03 15:25:19;;;;;;;2.07;1.97;;;;;;;;;;4973150;28;20459;-55
2022/06/03 15:27:55;;;;;;;2.07;1.97;;;;;;;;;;4973094;28;20472;-54
2022/06/03 15:30:35;;;;;;;1.63;1.50;;;;;;;;;;4973065;28;20436;-53
2022/06/03 15:33:08;;;;;;;1.80;1.70;;;;;;;;;;4973359;28;20781;-54
2022/06/03 15:35:34;;;;;;;2.20;2.00;;;;;;;;;;4973179;28;20460;-55
2022/06/03 15:38:01;;;;;;;1.87;1.70;;;;;;;;;;4972833;28;20421;-56
2022/06/03 15:40:28;;;;;;;2.90;1.80;;;;;;;;;;4973147;28;20428;-55
2022/06/03 15:42:56;;;;;;;1.90;1.80;;;;;;;;;;4972827;28;20452;-56
2022/06/03 15:45:37;;;;;;;2.20;2.00;;;;;;;;;;4973590;28;20413;-58
2022/06/03 15:48:08;;;;;;;2.00;1.90;;;;;;;;;;4973040;28;20432;-58
2022/06/03 15:50:34;;;;;;;2.20;2.10;;;;;;;;;;4973424;28;20450;-57
2022/06/03 15:53:03;;;;;;;2.37;2.17;;;;;;;;;;4973054;28;21001;-55
2022/06/03 15:55:34;;;;;;;1.90;1.80;;;;;;;;;;4972955;28;20452;-55
2022/06/03 15:58:29;;;;;;;1.93;1.83;;;;;;;;;;4972696;28;20825;-58